Time;durP1;ratioP1;P1;durP2;ratioP2;P2;SDS_P1;SDS_P2;PMS_P1;PMS_P2;Temp;Humidity;BMP_temperature;BMP_pressure;BME280_temperature;BME280_humidity;BME280_pressure;Samples;Min_cycle;Max_cycle;Signal;HPM_P1;HPM_P2
2022/09/06 00:00:52;;;;;;;8.13;6.10;;;;;;;21.98;53.55;100461.09;5100995;28;20472;-68
2022/09/06 00:03:19;;;;;;;8.47;5.90;;;;;;;21.94;53.86;100457.09;5111194;28;20501;-68
2022/09/06 00:05:47;;;;;;;6.13;5.53;;;;;;;21.99;53.66;100463.59;5101582;28;20484;-67
2022/09/06 00:08:14;;;;;;;7.93;6.03;;;;;;;21.93;53.97;100464.44;5102201;28;20436;-67
2022/09/06 00:10:42;;;;;;;6.30;5.70;;;;;;;21.91;53.87;100454.81;5104202;28;20543;-67
2022/09/06 00:13:10;;;;;;;12.83;6.30;;;;;;;22.07;53.23;100459.81;5110955;28;20526;-67
2022/09/06 00:15:37;;;;;;;6.43;5.83;;;;;;;22.04;53.52;100443.06;5107982;28;20498;-67
2022/09/06 00:18:05;;;;;;;6.50;5.90;;;;;;;21.97;53.80;100445.78;5115707;28;21105;-67
2022/09/06 00:20:33;;;;;;;6.80;6.20;;;;;;;22.04;53.59;100457.50;5102107;28;20526;-66
2022/09/06 00:23:04;;;;;;;6.47;5.87;;;;;;;21.94;53.93;100454.38;5121678;28;20997;-68
2022/09/06 00:25:32;;;;;;;9.50;5.80;;;;;;;21.94;54.01;100441.63;5119189;28;20470;-67
2022/09/06 00:28:00;;;;;;;6.13;5.53;;;;;;;21.96;53.74;100442.22;5110894;28;20455;-67
2022/09/06 00:30:29;;;;;;;6.63;5.97;;;;;;;21.95;53.83;100442.44;5100210;28;20472;-67
2022/09/06 00:32:56;;;;;;;9.80;6.60;;;;;;;21.94;54.06;100440.75;5117897;28;21068;-68
2022/09/06 00:35:23;;;;;;;8.57;6.63;;;;;;;21.90;54.16;100442.22;5121049;28;20468;-66
2022/09/06 00:37:50;;;;;;;7.00;6.40;;;;;;;21.88;54.10;100430.72;5119491;28;20844;-67
2022/09/06 00:40:18;;;;;;;6.63;5.70;;;;;;;21.89;54.09;100437.81;5103471;28;20467;-67
2022/09/06 00:42:45;;;;;;;6.47;5.80;;;;;;;21.87;54.34;100437.19;5100855;28;20475;-67
2022/09/06 00:45:12;;;;;;;6.23;5.30;;;;;;;21.96;54.00;100434.06;5101040;28;20504;-67
2022/09/06 00:47:40;;;;;;;6.00;5.50;;;;;;;21.90;54.38;100434.06;5100612;28;20432;-67
2022/09/06 00:50:08;;;;;;;6.77;6.00;;;;;;;21.73;54.53;100439.09;5107596;28;20448;-67
2022/09/06 00:52:35;;;;;;;6.37;5.77;;;;;;;21.72;54.48;100437.44;5102654;28;20499;-67
2022/09/06 00:55:02;;;;;;;6.47;5.80;;;;;;;21.75;54.92;100437.00;5100665;28;21167;-67
2022/09/06 00:57:31;;;;;;;6.53;5.77;;;;;;;21.69;55.02;100433.22;5099764;28;20982;-67
2022/09/06 00:59:58;;;;;;;6.50;5.90;;;;;;;21.71;54.67;100433.03;5104606;28;20462;-67
2022/09/06 01:02:25;;;;;;;7.83;6.10;;;;;;;21.75;54.89;100428.81;5100094;28;20472;-68
2022/09/06 01:04:52;;;;;;;5.90;5.40;;;;;;;21.60;55.32;100416.28;5100551;28;20441;-67
2022/09/06 01:07:30;;;;;;;5.87;5.47;;;;;;;21.60;55.09;100419.00;5100332;28;20525;-68
2022/09/06 01:10:08;;;;;;;7.37;5.63;;;;;;;21.61;55.28;100417.09;5104960;28;20472;-68
2022/09/06 01:12:44;;;;;;;9.83;5.50;;;;;;;21.53;55.56;100423.59;5115598;28;20470;-69
2022/09/06 01:15:22;;;;;;;6.20;5.60;;;;;;;21.57;55.44;100424.03;5108097;28;20439;-67
2022/09/06 01:17:59;;;;;;;6.50;6.00;;;;;;;21.53;55.70;100425.50;5119353;28;20915;-66
2022/09/06 01:20:41;;;;;;;6.40;5.90;;;;;;;21.53;55.62;100418.16;5104425;28;20551;-67
2022/09/06 01:23:29;;;;;;;13.13;6.60;;;;;;;21.52;55.61;100410.22;5102278;28;20452;-66
2022/09/06 01:26:05;;;;;;;7.43;5.87;;;;;;;21.49;55.79;100414.19;5105150;28;20494;-67
2022/09/06 01:28:36;;;;;;;6.43;5.87;;;;;;;21.42;56.26;100403.28;5105348;28;20478;-67
2022/09/06 01:31:11;;;;;;;7.83;6.20;;;;;;;21.48;56.06;100414.41;5103547;28;20502;-67
2022/09/06 01:33:42;;;;;;;6.03;5.50;;;;;;;21.46;56.08;100401.00;5122286;28;20465;-66
2022/09/06 01:36:11;;;;;;;7.17;6.47;;;;;;;21.45;56.13;100391.97;5121631;28;20481;-66
2022/09/06 01:38:37;;;;;;;7.00;6.40;;;;;;;21.42;56.12;100402.41;5122672;28;20994;-66
2022/09/06 01:41:04;;;;;;;6.33;5.60;;;;;;;21.41;56.23;100403.47;5115025;28;20481;-66
2022/09/06 01:43:32;;;;;;;7.20;6.17;;;;;;;21.31;56.61;100398.44;5123409;28;20492;-67
2022/09/06 01:46:07;;;;;;;6.23;5.30;;;;;;;21.27;56.55;100402.63;5111840;28;20474;-67
2022/09/06 01:48:44;;;;;;;6.77;5.17;;;;;;;21.30;56.75;100404.94;5123318;28;20451;-68
2022/09/06 01:51:16;;;;;;;5.40;5.00;;;;;;;21.35;56.65;100407.88;5118599;28;20562;-68
2022/09/06 01:54:02;;;;;;;6.27;5.67;;;;;;;21.35;56.81;100394.28;5085430;28;20476;-68
2022/09/06 01:56:37;;;;;;;5.90;5.40;;;;;;;21.30;56.91;100394.06;5097501;28;20559;-68
2022/09/06 01:59:33;;;;;;;5.77;5.27;;;;;;;21.28;57.06;100389.88;5117401;28;20485;-68
2022/09/06 02:02:06;;;;;;;6.07;5.57;;;;;;;21.16;57.61;100389.63;5073245;28;20480;-67
2022/09/06 02:04:37;;;;;;;6.10;5.50;;;;;;;21.19;57.41;100390.06;5103853;28;20447;-67
2022/09/06 02:07:10;;;;;;;10.20;6.20;;;;;;;21.14;57.63;100394.44;5104304;28;20477;-67
2022/09/06 02:09:40;;;;;;;12.30;5.90;;;;;;;21.24;57.34;100392.16;5104759;28;20484;-67
2022/09/06 02:12:08;;;;;;;6.20;5.50;;;;;;;21.25;57.46;100380.25;5116881;28;20570;-67
2022/09/06 02:14:37;;;;;;;6.47;5.80;;;;;;;21.13;57.96;100388.19;5107951;28;20469;-67
2022/09/06 02:17:07;;;;;;;10.20;5.87;;;;;;;21.20;57.73;100386.31;5089034;28;20484;-67
2022/09/06 02:19:36;;;;;;;7.70;6.10;;;;;;;21.17;57.69;100380.44;5107421;28;20456;-67
2022/09/06 02:22:08;;;;;;;6.03;5.43;;;;;;;21.22;57.65;100389.66;5114988;28;20523;-66
2022/09/06 02:24:36;;;;;;;6.00;5.40;;;;;;;21.28;57.67;100382.53;5103499;28;20437;-66
2022/09/06 02:27:04;;;;;;;6.17;5.57;;;;;;;21.17;57.95;100386.72;5105827;28;20470;-66
2022/09/06 02:29:31;;;;;;;7.97;6.13;;;;;;;21.20;57.87;100385.47;5118737;28;20455;-67
2022/09/06 02:32:03;;;;;;;6.23;5.73;;;;;;;21.19;58.20;100383.78;5107642;28;21001;-68
2022/09/06 02:34:31;;;;;;;5.30;4.90;;;;;;;21.25;57.72;100386.53;5103827;28;20440;-66
2022/09/06 02:36:58;;;;;;;5.73;5.23;;;;;;;21.23;57.89;100379.59;5103280;28;20478;-67
2022/09/06 02:39:25;;;;;;;6.67;6.10;;;;;;;21.21;58.08;100376.25;5110823;28;20500;-66
2022/09/06 02:41:51;;;;;;;5.70;5.10;;;;;;;21.27;57.87;100377.34;5110462;28;20492;-66
2022/09/06 02:44:18;;;;;;;6.73;6.13;;;;;;;21.15;58.25;100379.81;5104378;28;20470;-67
2022/09/06 02:46:45;;;;;;;6.30;5.70;;;;;;;21.09;58.70;100378.75;5108093;28;20471;-67
2022/09/06 02:49:12;;;;;;;8.83;6.63;;;;;;;21.17;58.25;100375.84;5101750;28;20456;-67
2022/09/06 02:51:40;;;;;;;6.93;6.33;;;;;;;21.24;58.02;100379.41;5101574;28;20468;-67
2022/09/06 02:54:07;;;;;;;7.17;6.47;;;;;;;21.09;58.48;100383.34;5105566;28;20915;-67
2022/09/06 02:56:35;;;;;;;7.50;5.80;;;;;;;21.09;58.77;100372.47;5114687;28;20846;-67
2022/09/06 02:59:02;;;;;;;7.57;6.90;;;;;;;21.14;58.67;100383.56;5115624;28;20483;-68
2022/09/06 03:01:29;;;;;;;6.80;6.10;;;;;;;21.19;58.64;100379.19;5106239;28;20469;-67
2022/09/06 03:03:56;;;;;;;7.23;6.53;;;;;;;21.13;58.46;100384.63;5103340;28;20440;-67
2022/09/06 03:06:23;;;;;;;6.90;6.00;;;;;;;21.09;58.90;100373.31;5113503;28;20986;-67
2022/09/06 03:08:51;;;;;;;5.90;5.40;;;;;;;21.11;58.75;100381.25;5102676;28;20448;-67
2022/09/06 03:11:18;;;;;;;7.20;6.50;;;;;;;21.08;58.71;100376.25;5103270;28;20480;-67
2022/09/06 03:13:44;;;;;;;7.27;6.53;;;;;;;21.09;58.81;100386.06;5102405;28;20478;-67
2022/09/06 03:16:11;;;;;;;7.13;6.53;;;;;;;21.06;58.82;100374.56;5101665;28;20479;-67
2022/09/06 03:18:38;;;;;;;7.30;6.60;;;;;;;21.01;58.89;100377.06;5102834;28;20471;-67
2022/09/06 03:21:04;;;;;;;6.67;6.07;;;;;;;20.98;59.07;100374.75;5102165;28;20464;-67
2022/09/06 03:23:31;;;;;;;11.10;6.80;;;;;;;20.88;59.81;100377.03;5103495;28;20445;-68
2022/09/06 03:25:59;;;;;;;6.70;6.10;;;;;;;20.85;59.69;100367.44;5109364;28;20506;-66
2022/09/06 03:28:26;;;;;;;7.10;6.50;;;;;;;20.89;59.62;100362.41;5110001;28;20462;-67
2022/09/06 03:30:53;;;;;;;7.60;6.87;;;;;;;20.90;59.78;100369.53;5109366;28;20635;-66
2022/09/06 03:33:20;;;;;;;7.10;6.50;;;;;;;20.86;60.13;100362.81;5103021;28;20437;-67
2022/09/06 03:35:48;;;;;;;7.03;6.33;;;;;;;20.82;60.00;100375.97;5102352;28;20468;-66
2022/09/06 03:38:15;;;;;;;7.87;7.10;;;;;;;20.81;60.03;100390.59;5101163;28;20828;-67
2022/09/06 03:40:44;;;;;;;7.20;6.60;;;;;;;20.86;60.25;100384.56;5100191;28;20979;-68
2022/09/06 03:43:12;;;;;;;6.47;5.80;;;;;;;20.88;59.94;100383.31;5101519;28;20957;-67
2022/09/06 03:45:39;;;;;;;6.90;6.40;;;;;;;20.95;60.04;100385.22;5116312;28;20517;-67
2022/09/06 03:48:06;;;;;;;6.60;6.10;;;;;;;20.93;60.27;100382.69;5106182;28;20448;-67
2022/09/06 03:50:32;;;;;;;8.47;6.93;;;;;;;20.92;60.16;100380.19;5120623;28;20471;-67
2022/09/06 03:52:59;;;;;;;7.73;7.10;;;;;;;20.93;60.28;100374.53;5118054;28;20441;-67
2022/09/06 03:55:26;;;;;;;7.83;6.87;;;;;;;20.95;60.19;100377.06;5112385;28;20933;-67
2022/09/06 03:57:52;;;;;;;9.43;7.33;;;;;;;20.92;60.37;100377.47;5105043;28;20473;-67
2022/09/06 04:00:21;;;;;;;7.67;7.07;;;;;;;20.84;60.61;100363.03;5102706;28;20455;-66
2022/09/06 04:02:47;;;;;;;7.60;6.97;;;;;;;20.98;59.97;100366.59;5103718;28;20444;-65
2022/09/06 04:05:15;;;;;;;7.47;6.87;;;;;;;20.94;60.24;100365.34;5109053;28;20523;-66
2022/09/06 04:07:43;;;;;;;7.73;6.67;;;;;;;20.90;60.51;100360.53;5101624;28;20440;-67
2022/09/06 04:10:10;;;;;;;11.07;7.20;;;;;;;20.82;60.64;100362.41;5100270;28;20480;-67
2022/09/06 04:12:36;;;;;;;7.27;6.57;;;;;;;20.87;61.62;100353.63;5119869;28;20477;-66
2022/09/06 04:15:04;;;;;;;8.13;6.70;;;;;;;20.79;61.44;100349.22;5121630;28;20432;-67
2022/09/06 04:17:32;;;;;;;7.87;7.03;;;;;;;20.76;61.85;100346.06;5105520;28;20512;-66
2022/09/06 04:19:59;;;;;;;8.00;7.30;;;;;;;20.73;61.78;100339.19;5101584;28;20460;-66
2022/09/06 04:22:25;;;;;;;8.10;7.40;;;;;;;20.70;61.86;100336.88;5099664;28;20472;-67
2022/09/06 04:24:52;;;;;;;7.03;6.43;;;;;;;20.56;62.31;100335.13;5100980;28;20432;-67
2022/09/06 04:27:19;;;;;;;7.67;7.07;;;;;;;20.56;62.57;100346.00;5098792;28;20476;-67
2022/09/06 04:29:45;;;;;;;7.80;7.00;;;;;;;20.66;62.35;100335.63;5109297;28;20835;-66
2022/09/06 04:32:12;;;;;;;7.10;6.50;;;;;;;20.65;62.18;100334.75;5107374;28;20475;-67
2022/09/06 04:34:41;;;;;;;9.43;6.90;;;;;;;20.74;61.64;100345.44;5119999;28;20502;-78
2022/09/06 04:37:07;;;;;;;8.87;7.23;;;;;;;20.78;61.63;100336.69;5105131;28;21002;-72
2022/09/06 04:39:34;;;;;;;6.97;6.30;;;;;;;20.74;62.04;100345.44;5102650;28;20488;-66
2022/09/06 04:42:00;;;;;;;7.33;6.70;;;;;;;20.61;62.61;100346.22;5095176;28;20546;-72
2022/09/06 04:44:27;;;;;;;7.77;6.87;;;;;;;20.58;62.77;100346.63;5099669;28;20497;-73
2022/09/06 04:47:04;;;;;;;10.00;7.57;;;;;;;20.61;62.64;100348.94;5098653;28;20480;-72
2022/09/06 04:49:31;;;;;;;7.50;6.80;;;;;;;20.63;63.42;100357.75;5099794;28;20452;-71
2022/09/06 04:51:59;;;;;;;8.20;7.50;;;;;;;20.58;63.69;100357.50;5100081;28;20502;-71
2022/09/06 04:54:25;;;;;;;9.13;7.23;;;;;;;20.64;64.25;100364.84;5103550;28;20597;-72
2022/09/06 04:56:52;;;;;;;8.33;6.90;;;;;;;20.72;64.17;100363.84;5102692;28;20732;-72
2022/09/06 04:59:19;;;;;;;7.97;7.20;;;;;;;20.50;65.00;100369.34;5103495;28;20488;-72
2022/09/06 05:01:45;;;;;;;9.43;7.00;;;;;;;20.45;65.42;100367.25;5104471;28;20471;-72
2022/09/06 05:04:12;;;;;;;8.33;7.63;;;;;;;20.67;64.88;100375.31;5103136;28;20851;-69
2022/09/06 05:06:40;;;;;;;9.07;8.00;;;;;;;20.58;65.26;100365.63;5104473;28;20497;-69
2022/09/06 05:09:08;;;;;;;7.93;7.03;;;;;;;20.74;64.99;100361.75;5103913;28;20453;-69
2022/09/06 05:11:35;;;;;;;8.37;7.07;;;;;;;20.72;64.71;100361.94;5102186;28;20476;-70
2022/09/06 05:14:02;;;;;;;8.83;6.80;;;;;;;20.64;64.90;100356.69;5104984;28;20445;-69
2022/09/06 05:16:29;;;;;;;10.50;8.13;;;;;;;20.74;64.84;100365.28;5107980;28;20477;-73
2022/09/06 05:18:55;;;;;;;8.83;7.43;;;;;;;20.67;65.67;100353.56;5110761;28;20483;-72
2022/09/06 05:21:22;;;;;;;8.67;7.77;;;;;;;20.55;66.35;100366.03;5110789;28;20472;-72
2022/09/06 05:23:49;;;;;;;9.07;8.17;;;;;;;20.51;67.15;100363.72;5109279;28;20517;-72
2022/09/06 05:26:17;;;;;;;10.30;9.03;;;;;;;20.52;67.30;100367.28;5098827;27;21542;-72
2022/09/06 05:28:44;;;;;;;9.47;8.57;;;;;;;20.49;67.83;100373.97;5111893;28;20472;-71
2022/09/06 05:31:12;;;;;;;9.70;7.77;;;;;;;20.47;68.19;100369.78;5102609;28;20483;-71
2022/09/06 05:33:39;;;;;;;9.37;8.50;;;;;;;20.58;67.75;100374.63;5102502;28;20907;-72
2022/09/06 05:36:07;;;;;;;12.23;7.57;;;;;;;20.47;68.07;100367.91;5102503;28;20485;-72
2022/09/06 05:38:34;;;;;;;8.60;7.70;;;;;;;20.45;67.98;100372.69;5103153;28;20477;-72
2022/09/06 05:41:00;;;;;;;10.60;8.70;;;;;;;20.65;66.43;100386.38;5100737;28;20476;-72
2022/09/06 05:43:28;;;;;;;8.60;7.53;;;;;;;20.66;66.20;100379.09;5103685;28;20564;-71
2022/09/06 05:45:55;;;;;;;8.00;7.23;;;;;;;20.49;67.00;100386.72;5094793;28;20468;-71
2022/09/06 05:48:22;;;;;;;8.03;7.33;;;;;;;20.60;66.49;100391.53;5099056;28;20441;-70
2022/09/06 05:50:59;;;;;;;9.70;8.80;;;;;;;20.53;66.45;100390.69;5101926;28;20472;-70
2022/09/06 05:53:26;;;;;;;8.70;7.90;;;;;;;20.64;66.32;100383.84;5100072;28;20433;-70
2022/09/06 05:55:53;;;;;;;8.50;7.70;;;;;;;20.55;66.07;100402.19;5100233;28;20524;-70
2022/09/06 05:58:20;;;;;;;8.03;7.17;;;;;;;20.56;66.77;100405.75;5101993;28;20962;-71
2022/09/06 06:00:48;;;;;;;11.50;8.60;;;;;;;20.74;65.73;100403.31;5102330;28;20467;-71
2022/09/06 06:03:17;;;;;;;10.10;7.60;;;;;;;20.72;65.47;100412.75;5101728;28;20449;-72
2022/09/06 06:05:46;;;;;;;8.30;7.60;;;;;;;20.78;65.40;100407.34;5101979;28;20480;-72
2022/09/06 06:08:13;;;;;;;9.90;8.97;;;;;;;20.75;65.84;100407.72;5102607;28;20452;-72
2022/09/06 06:10:40;;;;;;;14.70;8.50;;;;;;;20.78;66.47;100411.91;5100510;28;20463;-72
2022/09/06 06:13:06;;;;;;;12.47;8.40;;;;;;;20.75;66.54;100423.22;5103040;28;20433;-72
2022/09/06 06:15:33;;;;;;;9.33;8.43;;;;;;;20.76;65.49;100414.84;5101722;28;20475;-71
2022/09/06 06:18:01;;;;;;;9.53;7.90;;;;;;;20.86;64.96;100415.28;5100958;28;20556;-71
2022/09/06 06:20:28;;;;;;;9.10;8.30;;;;;;;20.98;64.88;100401.94;5101165;28;20521;-71
2022/09/06 06:22:54;;;;;;;12.93;8.20;;;;;;;21.03;65.17;100401.34;5102817;28;20432;-71
2022/09/06 06:25:24;;;;;;;10.60;8.03;;;;;;;21.18;65.45;100406.56;5099992;28;20442;-71
2022/09/06 06:27:51;;;;;;;9.70;7.90;;;;;;;21.04;66.53;100403.84;5102346;28;20462;-71
2022/09/06 06:30:18;;;;;;;8.43;7.73;;;;;;;21.03;67.12;100402.16;5101686;28;20538;-70
2022/09/06 06:32:45;;;;;;;8.90;8.03;;;;;;;21.02;66.46;100414.09;5101713;28;20425;-71
2022/09/06 06:35:13;;;;;;;14.00;8.90;;;;;;;21.09;66.71;100424.97;5101926;28;20443;-71
2022/09/06 06:37:41;;;;;;;9.20;8.30;;;;;;;21.36;65.05;100423.13;5101129;28;20440;-72
2022/09/06 06:40:08;;;;;;;12.57;8.57;;;;;;;21.35;65.32;100428.78;5099588;28;21090;-72
2022/09/06 06:42:35;;;;;;;9.60;8.70;;;;;;;21.36;65.33;100431.28;5099423;28;20558;-71
2022/09/06 06:45:02;;;;;;;10.13;9.23;;;;;;;21.35;65.31;100431.50;5102219;28;20478;-72
2022/09/06 06:47:29;;;;;;;9.30;8.50;;;;;;;21.59;64.99;100435.53;5099498;28;20490;-71
2022/09/06 06:49:55;;;;;;;9.00;8.20;;;;;;;21.76;64.08;100431.34;5100583;28;20455;-71
2022/09/06 06:52:24;;;;;;;8.40;7.50;;;;;;;21.76;64.21;100433.25;5101306;28;20495;-72
2022/09/06 06:54:51;;;;;;;9.00;8.20;;;;;;;21.67;64.08;100429.06;5100175;28;20542;-72
2022/09/06 06:57:17;;;;;;;9.43;8.50;;;;;;;21.69;63.91;100437.84;5097974;28;20484;-72
2022/09/06 06:59:44;;;;;;;10.57;8.73;;;;;;;21.78;63.58;100431.13;5101051;28;20523;-71
2022/09/06 07:02:14;;;;;;;8.37;7.57;;;;;;;22.02;63.09;100432.38;5100476;28;20476;-71
2022/09/06 07:04:41;;;;;;;8.37;7.60;;;;;;;22.03;62.78;100423.19;5101759;28;20518;-72
2022/09/06 07:07:08;;;;;;;9.27;8.37;;;;;;;22.22;62.25;100416.00;5100960;28;20457;-72
2022/09/06 07:09:36;;;;;;;9.90;8.57;;;;;;;21.99;63.56;100402.84;5100240;28;20449;-72
2022/09/06 07:12:03;;;;;;;9.90;8.50;;;;;;;22.02;63.20;100404.31;5100880;28;20545;-72
2022/09/06 07:14:30;;;;;;;9.77;8.93;;;;;;;22.02;63.08;100412.50;5101377;28;20433;-71
2022/09/06 07:16:58;;;;;;;10.00;8.83;;;;;;;22.06;62.81;100417.28;5099213;28;20484;-72
2022/09/06 07:19:25;;;;;;;9.30;8.47;;;;;;;22.25;62.51;100414.75;5100649;28;20497;-72
2022/09/06 07:21:52;;;;;;;9.00;8.20;;;;;;;22.19;62.34;100419.97;5100879;28;20526;-74
2022/09/06 07:24:19;;;;;;;8.40;7.70;;;;;;;22.11;62.80;100425.66;5098808;28;20456;-70
2022/09/06 07:26:47;;;;;;;9.57;8.53;;;;;;;22.23;62.58;100422.28;5101709;28;20919;-69
2022/09/06 07:29:13;;;;;;;9.40;8.60;;;;;;;22.25;62.47;100425.63;5102259;28;21148;-70
2022/09/06 07:31:40;;;;;;;9.00;8.20;;;;;;;22.24;62.50;100418.50;5099241;28;20481;-72
2022/09/06 07:34:07;;;;;;;9.20;8.40;;;;;;;22.06;63.44;100420.00;5100990;28;20528;-73
2022/09/06 07:36:34;;;;;;;8.33;7.63;;;;;;;22.10;63.76;100410.38;5100067;28;20476;-72
2022/09/06 07:39:00;;;;;;;9.50;8.70;;;;;;;22.19;63.32;100409.09;5098662;28;20488;-73
2022/09/06 07:41:27;;;;;;;11.70;9.27;;;;;;;21.97;63.99;100402.22;5106599;28;20480;-72
2022/09/06 07:43:55;;;;;;;9.70;8.70;;;;;;;22.08;63.65;100409.75;5121525;28;20515;-72
2022/09/06 07:46:22;;;;;;;9.90;8.67;;;;;;;22.23;63.81;100423.13;5120004;28;20476;-73
2022/09/06 07:48:49;;;;;;;10.00;9.00;;;;;;;22.48;63.22;100419.72;5113253;28;20437;-74
2022/09/06 07:51:18;;;;;;;8.60;7.90;;;;;;;22.20;64.37;100412.63;5100218;28;20479;-74
2022/09/06 07:53:49;;;;;;;10.70;9.70;;;;;;;22.07;64.62;100404.53;5098703;28;20440;-73
2022/09/06 07:56:17;;;;;;;10.10;9.10;;;;;;;21.92;65.53;100405.56;5099865;28;20480;-72
2022/09/06 07:58:43;;;;;;;8.93;8.20;;;;;;;21.94;65.75;100406.22;5100611;28;20481;-71
2022/09/06 08:01:28;;;;;;;11.17;9.43;;;;;;;21.84;66.73;100399.50;5098440;28;20487;-71
2022/09/06 08:03:56;;;;;;;11.27;10.30;;;;;;;21.71;67.66;100401.19;5100969;28;20915;-73
2022/09/06 08:06:23;;;;;;;13.33;10.23;;;;;;;21.79;67.91;100397.44;5100368;28;20480;-73
2022/09/06 08:08:50;;;;;;;10.30;9.20;;;;;;;21.95;67.99;100393.44;5099150;28;20460;-72
2022/09/06 08:11:17;;;;;;;11.53;10.27;;;;;;;22.08;67.37;100398.88;5099492;28;20511;-73
2022/09/06 08:13:44;;;;;;;10.87;9.87;;;;;;;22.19;67.56;100392.75;5100630;28;20443;-74
2022/09/06 08:16:12;;;;;;;10.20;9.17;;;;;;;21.82;68.59;100388.84;5099019;28;20487;-72
2022/09/06 08:18:40;;;;;;;14.03;10.97;;;;;;;21.72;68.94;100375.69;5099658;28;20485;-73
2022/09/06 08:21:09;;;;;;;11.23;10.23;;;;;;;21.90;68.41;100376.91;5099785;28;20477;-72
2022/09/06 08:23:36;;;;;;;11.73;10.70;;;;;;;21.89;68.28;100369.78;5099149;28;20599;-73
2022/09/06 08:26:03;;;;;;;10.47;9.57;;;;;;;22.06;67.38;100362.81;5099446;28;20890;-72
2022/09/06 08:28:30;;;;;;;10.80;9.80;;;;;;;22.33;65.68;100373.69;5099634;28;20425;-73
2022/09/06 08:31:05;;;;;;;10.30;9.20;;;;;;;22.74;63.79;100388.78;5098463;28;20477;-73
2022/09/06 08:33:32;;;;;;;10.60;9.60;;;;;;;23.13;63.03;100397.84;5100326;28;20437;-73
2022/09/06 08:36:00;;;;;;;9.93;9.03;;;;;;;23.40;61.78;100386.72;5099165;28;21064;-73
2022/09/06 08:38:27;;;;;;;10.10;9.23;;;;;;;23.97;59.23;100383.94;5098477;28;20433;-72
2022/09/06 08:40:55;;;;;;;10.30;8.40;;;;;;;24.47;57.87;100377.50;5099104;28;20542;-73
2022/09/06 08:43:22;;;;;;;10.20;7.70;;;;;;;24.98;55.03;100378.94;5100545;28;20445;-73
2022/09/06 08:45:53;;;;;;;9.77;7.37;;;;;;;25.87;52.90;100373.50;5098141;28;20468;-73
2022/09/06 08:48:20;;;;;;;9.50;8.50;;;;;;;26.16;50.69;100364.56;5092003;28;20495;-70
2022/09/06 08:50:53;;;;;;;7.93;7.23;;;;;;;25.93;50.93;100358.84;5079468;28;20477;-73
2022/09/06 08:53:21;;;;;;;9.60;8.43;;;;;;;26.13;51.08;100354.94;5077150;28;20962;-73
2022/09/06 08:55:54;;;;;;;9.27;8.33;;;;;;;26.29;50.53;100356.91;5078012;28;20486;-72
2022/09/06 08:58:39;;;;;;;10.83;9.10;;;;;;;27.10;48.01;100355.16;5079420;28;20603;-72
2022/09/06 09:01:07;;;;;;;11.00;8.07;;;;;;;28.11;45.66;100357.06;5074774;28;20478;-72
2022/09/06 09:03:36;;;;;;;8.80;7.60;;;;;;;28.33;44.28;100365.31;5079635;28;20435;-71
2022/09/06 09:06:04;;;;;;;10.07;6.10;;;;;;;29.31;42.77;100364.47;5078620;28;20483;-72
2022/09/06 09:08:39;;;;;;;9.90;6.57;;;;;;;30.90;38.16;100361.72;5078379;28;20944;-72
2022/09/06 09:11:09;;;;;;;7.23;6.57;;;;;;;31.85;37.45;100368.69;5078416;28;20479;-72
2022/09/06 09:13:39;;;;;;;8.13;7.33;;;;;;;33.31;34.39;100361.06;5079225;28;20459;-72
2022/09/06 09:16:08;;;;;;;9.93;5.33;;;;;;;34.04;31.78;100370.34;5077798;28;20554;-73
2022/09/06 09:18:38;;;;;;;6.20;5.60;;;;;;;32.99;32.74;100365.16;5078743;28;20530;-73
2022/09/06 09:21:05;;;;;;;6.57;5.20;;;;;;;33.33;32.17;100375.47;5078356;28;20502;-72
2022/09/06 09:23:33;;;;;;;6.90;5.97;;;;;;;33.45;31.96;100366.75;5078044;28;20446;-72
2022/09/06 09:26:03;;;;;;;13.57;6.50;;;;;;;33.69;31.65;100374.34;5083649;28;20482;-73
2022/09/06 09:28:29;;;;;;;6.67;5.77;;;;;;;33.83;31.91;100378.06;5089508;28;20472;-72
2022/09/06 09:30:56;;;;;;;6.03;5.53;;;;;;;33.87;31.50;100370.84;5077550;28;20510;-72
2022/09/06 09:33:27;;;;;;;8.67;6.00;;;;;;;34.80;30.31;100367.75;5078682;28;20459;-73
2022/09/06 09:35:54;;;;;;;6.10;5.33;;;;;;;34.01;30.69;100361.78;5082638;28;20478;-70
2022/09/06 09:38:23;;;;;;;6.23;5.40;;;;;;;33.89;30.43;100354.72;5083946;28;20456;-70
2022/09/06 09:40:53;;;;;;;5.37;4.93;;;;;;;34.04;30.55;100358.44;5082736;28;20995;-71
2022/09/06 09:43:22;;;;;;;4.33;3.93;;;;;;;34.18;29.45;100358.53;5103291;28;20488;-71
2022/09/06 09:46:25;;;;;;;6.90;5.40;;;;;;;32.76;31.51;100343.72;5118356;28;20530;-71
2022/09/06 09:49:03;;;;;;;4.80;4.40;;;;;;;33.39;31.35;100338.28;5102666;28;20515;-72
2022/09/06 09:51:30;;;;;;;5.30;4.60;;;;;;;34.84;28.50;100338.25;5101350;28;20482;-72
2022/09/06 09:53:58;;;;;;;4.20;3.80;;;;;;;34.98;28.79;100334.69;5101189;28;20438;-72
2022/09/06 09:56:32;;;;;;;5.80;5.00;;;;;;;34.28;29.72;100339.03;5102120;28;20569;-71
2022/09/06 09:58:59;;;;;;;6.30;4.63;;;;;;;32.40;32.38;100338.38;5101967;28;20457;-72
2022/09/06 10:01:29;;;;;;;5.30;4.80;;;;;;;32.76;31.08;100340.94;5102367;28;20482;-72
2022/09/06 10:04:06;;;;;;;4.67;4.13;;;;;;;34.49;28.86;100340.38;5103097;28;20526;-72
2022/09/06 10:06:33;;;;;;;6.10;4.30;;;;;;;33.77;29.99;100345.97;5101183;28;20514;-72
2022/09/06 10:08:59;;;;;;;4.57;4.17;;;;;;;34.60;28.84;100337.47;5102895;28;20453;-70
2022/09/06 10:11:48;;;;;;;5.00;4.27;;;;;;;34.00;29.66;100340.72;5101518;28;20858;-70
2022/09/06 10:14:25;;;;;;;6.60;4.47;;;;;;;32.66;30.71;100344.63;5101930;28;20466;-71
2022/09/06 10:16:52;;;;;;;19.87;4.83;;;;;;;32.65;31.07;100349.34;5101765;28;20491;-72
2022/09/06 10:19:37;;;;;;;4.50;3.90;;;;;;;34.21;29.03;100347.69;5100862;28;20510;-73
2022/09/06 10:22:18;;;;;;;5.70;4.53;;;;;;;33.39;29.33;100348.53;5101230;28;20472;-71
2022/09/06 10:25:06;;;;;;;7.70;4.23;;;;;;;33.54;28.97;100347.53;5102740;28;20508;-71
2022/09/06 10:27:34;;;;;;;4.30;3.60;;;;;;;32.67;30.71;100335.19;5097679;28;20505;-72
2022/09/06 10:30:04;;;;;;;4.40;3.90;;;;;;;33.64;28.05;100341.09;5100990;28;20470;-70
2022/09/06 10:32:41;;;;;;;4.30;3.90;;;;;;;32.69;30.09;100335.75;5106545;28;20732;-71
2022/09/06 10:35:16;;;;;;;6.53;3.97;;;;;;;33.96;28.14;100333.00;5122183;27;20453;-71
2022/09/06 10:37:54;;;;;;;4.30;3.90;;;;;;;33.64;28.54;100322.50;5104225;28;20456;-71
2022/09/06 10:40:30;;;;;;;5.30;4.47;;;;;;;33.54;28.59;100317.91;5100975;28;20531;-71
2022/09/06 10:43:00;;;;;;;4.37;3.80;;;;;;;34.28;27.83;100317.63;5102090;28;20486;-70
2022/09/06 10:45:45;;;;;;;4.40;4.00;;;;;;;32.78;29.35;100313.81;5100906;28;20475;-70
2022/09/06 10:48:17;;;;;;;5.07;4.57;;;;;;;33.52;29.06;100311.84;5091948;28;20478;-72
2022/09/06 10:50:49;;;;;;;3.63;3.33;;;;;;;33.94;28.90;100312.25;5100506;28;20477;-70
2022/09/06 10:53:24;;;;;;;4.73;3.90;;;;;;;34.50;27.55;100314.28;5100582;28;20915;-69
2022/09/06 10:55:59;;;;;;;4.07;3.67;;;;;;;34.04;27.87;100314.03;5100890;28;20502;-70
2022/09/06 10:58:34;;;;;;;5.10;3.87;;;;;;;32.07;29.93;100302.81;5101177;28;21041;-71
2022/09/06 11:01:01;;;;;;;6.53;4.13;;;;;;;33.46;29.00;100301.91;5101347;28;20573;-71
2022/09/06 11:03:30;;;;;;;4.70;3.37;;;;;;;33.38;28.61;100297.84;5101615;28;20455;-72
2022/09/06 11:06:01;;;;;;;4.23;3.83;;;;;;;34.05;28.53;100296.28;5098412;28;20542;-71
2022/09/06 11:08:32;;;;;;;10.37;4.23;;;;;;;33.22;29.49;100297.13;5101629;28;20454;-71
2022/09/06 11:11:03;;;;;;;4.07;3.67;;;;;;;35.12;26.41;100296.69;5101282;28;20553;-71
2022/09/06 11:13:32;;;;;;;4.90;4.00;;;;;;;35.46;25.68;100301.13;5101126;28;20893;-71
2022/09/06 11:16:03;;;;;;;4.47;4.10;;;;;;;33.01;29.26;100299.22;5101829;28;20479;-70
2022/09/06 11:18:35;;;;;;;4.03;3.73;;;;;;;33.30;28.63;100300.41;5101259;28;20431;-71
2022/09/06 11:21:19;;;;;;;5.00;3.87;;;;;;;32.56;29.31;100290.13;5099990;28;20482;-70
2022/09/06 11:23:48;;;;;;;4.10;3.57;;;;;;;33.32;28.50;100301.75;5099827;28;20468;-71
2022/09/06 11:26:34;;;;;;;3.60;2.80;;;;;;;34.04;27.21;100289.88;5100771;28;20475;-70
2022/09/06 11:29:04;;;;;;;5.10;3.40;;;;;;;34.50;26.73;100292.06;5101158;28;20435;-70
2022/09/06 11:31:32;;;;;;;3.73;3.33;;;;;;;34.31;26.91;100299.56;5101427;28;20485;-71
2022/09/06 11:34:06;;;;;;;4.70;3.50;;;;;;;33.73;27.40;100301.38;5101763;28;20935;-72